Terminal Aerodrome Forecast
Issued by NWS Lake Charles, LA

Home | Current Version | Previous Version | Text Only | Print | Product List | Glossary On
Versions: 1 2 3 4 5 6 7 8 9 10 11 12 13
000
FTUS44 KLCH 311134
TAFBPT
TAF
KBPT 311134Z 3112/0112 15003KT P6SM SCT015 BKN250
     FM311700 16008KT P6SM VCTS SCT035CB BKN220
     FM010000 15004KT P6SM BKN250
     FM010900 15003KT 4SM BR BKN250=

USA.gov is the U.S. government's official web portal to all federal, state and local government web resources and services.